sensor_id;sensor_type;location;lat;lon;timestamp;P1;durP1;ratioP1;P2;durP2;ratioP2
10450;SDS011;5273;51.290;6.918;2022-09-24T00:00:53;6.68;;;4.90;;
10450;SDS011;5273;51.290;6.918;2022-09-24T00:03:22;7.72;;;5.30;;
10450;SDS011;5273;51.290;6.918;2022-09-24T00:05:51;5.70;;;4.55;;
10450;SDS011;5273;51.290;6.918;2022-09-24T00:08:18;9.63;;;5.28;;
10450;SDS011;5273;51.290;6.918;2022-09-24T00:10:46;10.50;;;5.13;;
10450;SDS011;5273;51.290;6.918;2022-09-24T00:13:14;5.68;;;4.35;;
10450;SDS011;5273;51.290;6.918;2022-09-24T00:15:43;8.02;;;4.80;;
10450;SDS011;5273;51.290;6.918;2022-09-24T00:18:13;6.70;;;5.25;;
10450;SDS011;5273;51.290;6.918;2022-09-24T00:20:43;11.48;;;5.75;;
10450;SDS011;5273;51.290;6.918;2022-09-24T00:23:10;10.07;;;5.18;;
10450;SDS011;5273;51.290;6.918;2022-09-24T00:25:40;8.30;;;5.00;;
10450;SDS011;5273;51.290;6.918;2022-09-24T00:28:25;9.40;;;5.43;;
10450;SDS011;5273;51.290;6.918;2022-09-24T00:30:52;9.10;;;4.88;;
10450;SDS011;5273;51.290;6.918;2022-09-24T00:33:20;9.15;;;5.07;;
10450;SDS011;5273;51.290;6.918;2022-09-24T00:35:48;11.20;;;5.72;;
10450;SDS011;5273;51.290;6.918;2022-09-24T00:38:16;7.60;;;5.63;;
10450;SDS011;5273;51.290;6.918;2022-09-24T00:40:43;9.75;;;5.68;;
10450;SDS011;5273;51.290;6.918;2022-09-24T00:43:23;7.75;;;5.68;;
10450;SDS011;5273;51.290;6.918;2022-09-24T00:45:51;9.30;;;6.45;;
10450;SDS011;5273;51.290;6.918;2022-09-24T00:48:20;10.10;;;6.38;;
10450;SDS011;5273;51.290;6.918;2022-09-24T00:50:48;8.20;;;5.50;;
10450;SDS011;5273;51.290;6.918;2022-09-24T00:53:16;8.70;;;5.78;;
10450;SDS011;5273;51.290;6.918;2022-09-24T00:55:46;8.70;;;6.32;;
10450;SDS011;5273;51.290;6.918;2022-09-24T00:58:15;6.85;;;5.72;;
10450;SDS011;5273;51.290;6.918;2022-09-24T01:00:43;7.00;;;5.47;;
10450;SDS011;5273;51.290;6.918;2022-09-24T01:03:12;6.45;;;5.55;;
10450;SDS011;5273;51.290;6.918;2022-09-24T01:05:42;9.27;;;5.70;;
10450;SDS011;5273;51.290;6.918;2022-09-24T01:08:11;8.07;;;6.22;;
10450;SDS011;5273;51.290;6.918;2022-09-24T01:10:42;9.13;;;5.78;;
10450;SDS011;5273;51.290;6.918;2022-09-24T01:13:23;10.65;;;5.75;;
10450;SDS011;5273;51.290;6.918;2022-09-24T01:16:01;9.10;;;5.57;;
10450;SDS011;5273;51.290;6.918;2022-09-24T01:18:32;9.27;;;5.43;;
10450;SDS011;5273;51.290;6.918;2022-09-24T01:21:08;12.10;;;5.60;;
10450;SDS011;5273;51.290;6.918;2022-09-24T01:24:00;6.60;;;4.82;;
10450;SDS011;5273;51.290;6.918;2022-09-24T01:26:47;8.68;;;6.03;;
10450;SDS011;5273;51.290;6.918;2022-09-24T01:29:23;8.10;;;6.10;;
10450;SDS011;5273;51.290;6.918;2022-09-24T01:31:58;10.35;;;6.43;;
10450;SDS011;5273;51.290;6.918;2022-09-24T01:34:31;7.88;;;6.38;;
10450;SDS011;5273;51.290;6.918;2022-09-24T01:37:02;6.28;;;5.40;;
10450;SDS011;5273;51.290;6.918;2022-09-24T01:39:30;8.82;;;5.72;;
10450;SDS011;5273;51.290;6.918;2022-09-24T01:41:58;9.63;;;6.35;;
10450;SDS011;5273;51.290;6.918;2022-09-24T01:44:27;13.52;;;6.70;;
10450;SDS011;5273;51.290;6.918;2022-09-24T01:46:54;13.20;;;6.80;;
10450;SDS011;5273;51.290;6.918;2022-09-24T01:49:21;8.50;;;6.65;;
10450;SDS011;5273;51.290;6.918;2022-09-24T01:51:49;9.05;;;7.03;;
10450;SDS011;5273;51.290;6.918;2022-09-24T01:54:21;9.00;;;6.60;;
10450;SDS011;5273;51.290;6.918;2022-09-24T01:56:52;11.73;;;7.38;;
10450;SDS011;5273;51.290;6.918;2022-09-24T01:59:23;9.85;;;6.40;;
10450;SDS011;5273;51.290;6.918;2022-09-24T02:01:56;9.50;;;6.47;;
10450;SDS011;5273;51.290;6.918;2022-09-24T02:04:28;12.48;;;6.43;;
10450;SDS011;5273;51.290;6.918;2022-09-24T02:06:59;6.88;;;6.05;;
10450;SDS011;5273;51.290;6.918;2022-09-24T02:09:30;10.65;;;6.30;;
10450;SDS011;5273;51.290;6.918;2022-09-24T02:11:59;15.20;;;7.15;;
10450;SDS011;5273;51.290;6.918;2022-09-24T02:14:33;10.75;;;6.45;;
10450;SDS011;5273;51.290;6.918;2022-09-24T02:17:04;9.85;;;7.00;;
10450;SDS011;5273;51.290;6.918;2022-09-24T02:19:33;8.50;;;6.28;;
10450;SDS011;5273;51.290;6.918;2022-09-24T02:22:01;9.05;;;6.18;;
10450;SDS011;5273;51.290;6.918;2022-09-24T02:24:31;11.40;;;6.50;;
10450;SDS011;5273;51.290;6.918;2022-09-24T02:27:02;15.15;;;7.35;;
10450;SDS011;5273;51.290;6.918;2022-09-24T02:29:29;10.50;;;5.90;;
10450;SDS011;5273;51.290;6.918;2022-09-24T02:31:58;9.73;;;6.78;;
10450;SDS011;5273;51.290;6.918;2022-09-24T02:34:26;9.23;;;6.25;;
10450;SDS011;5273;51.290;6.918;2022-09-24T02:36:56;12.25;;;5.85;;
10450;SDS011;5273;51.290;6.918;2022-09-24T02:39:26;11.73;;;6.85;;
10450;SDS011;5273;51.290;6.918;2022-09-24T02:41:53;14.10;;;6.15;;
10450;SDS011;5273;51.290;6.918;2022-09-24T02:44:22;9.13;;;6.28;;
10450;SDS011;5273;51.290;6.918;2022-09-24T02:46:49;11.25;;;7.25;;
10450;SDS011;5273;51.290;6.918;2022-09-24T02:49:18;12.07;;;6.72;;
10450;SDS011;5273;51.290;6.918;2022-09-24T02:51:45;10.75;;;6.55;;
10450;SDS011;5273;51.290;6.918;2022-09-24T02:54:12;9.73;;;6.18;;
10450;SDS011;5273;51.290;6.918;2022-09-24T02:56:39;9.18;;;6.28;;
10450;SDS011;5273;51.290;6.918;2022-09-24T02:59:06;8.20;;;6.03;;
10450;SDS011;5273;51.290;6.918;2022-09-24T03:01:34;12.27;;;6.50;;
10450;SDS011;5273;51.290;6.918;2022-09-24T03:04:01;8.60;;;6.28;;
10450;SDS011;5273;51.290;6.918;2022-09-24T03:06:29;10.05;;;6.40;;
10450;SDS011;5273;51.290;6.918;2022-09-24T03:08:56;8.60;;;6.43;;
10450;SDS011;5273;51.290;6.918;2022-09-24T03:11:23;10.55;;;7.70;;
10450;SDS011;5273;51.290;6.918;2022-09-24T03:13:50;8.40;;;6.18;;
10450;SDS011;5273;51.290;6.918;2022-09-24T03:16:18;8.95;;;5.85;;
10450;SDS011;5273;51.290;6.918;2022-09-24T03:18:45;11.40;;;6.53;;
10450;SDS011;5273;51.290;6.918;2022-09-24T03:21:13;10.05;;;6.20;;
10450;SDS011;5273;51.290;6.918;2022-09-24T03:23:44;10.35;;;6.32;;
10450;SDS011;5273;51.290;6.918;2022-09-24T03:26:12;6.60;;;5.50;;
10450;SDS011;5273;51.290;6.918;2022-09-24T03:28:39;11.10;;;5.85;;
10450;SDS011;5273;51.290;6.918;2022-09-24T03:31:06;9.00;;;6.07;;
10450;SDS011;5273;51.290;6.918;2022-09-24T03:33:33;6.50;;;5.80;;
10450;SDS011;5273;51.290;6.918;2022-09-24T03:36:02;10.18;;;5.95;;
10450;SDS011;5273;51.290;6.918;2022-09-24T03:38:32;8.10;;;6.13;;
10450;SDS011;5273;51.290;6.918;2022-09-24T03:41:01;9.93;;;5.97;;
10450;SDS011;5273;51.290;6.918;2022-09-24T03:43:28;9.30;;;5.80;;
10450;SDS011;5273;51.290;6.918;2022-09-24T03:45:55;8.87;;;6.20;;
10450;SDS011;5273;51.290;6.918;2022-09-24T03:48:23;16.63;;;6.22;;
10450;SDS011;5273;51.290;6.918;2022-09-24T03:50:50;9.68;;;6.47;;
10450;SDS011;5273;51.290;6.918;2022-09-24T03:53:18;10.23;;;6.73;;
10450;SDS011;5273;51.290;6.918;2022-09-24T03:55:46;9.13;;;6.85;;
10450;SDS011;5273;51.290;6.918;2022-09-24T03:58:16;10.25;;;7.57;;
10450;SDS011;5273;51.290;6.918;2022-09-24T04:00:43;10.33;;;6.77;;
10450;SDS011;5273;51.290;6.918;2022-09-24T04:03:10;10.53;;;7.60;;
10450;SDS011;5273;51.290;6.918;2022-09-24T04:05:37;12.63;;;8.07;;
10450;SDS011;5273;51.290;6.918;2022-09-24T04:08:04;10.63;;;7.75;;
10450;SDS011;5273;51.290;6.918;2022-09-24T04:10:31;9.75;;;7.60;;
10450;SDS011;5273;51.290;6.918;2022-09-24T04:12:58;13.27;;;8.10;;
10450;SDS011;5273;51.290;6.918;2022-09-24T04:15:27;16.90;;;9.47;;
10450;SDS011;5273;51.290;6.918;2022-09-24T04:17:54;10.47;;;7.87;;
10450;SDS011;5273;51.290;6.918;2022-09-24T04:20:23;12.23;;;7.50;;
10450;SDS011;5273;51.290;6.918;2022-09-24T04:22:51;13.15;;;7.80;;
10450;SDS011;5273;51.290;6.918;2022-09-24T04:25:19;13.47;;;7.93;;
10450;SDS011;5273;51.290;6.918;2022-09-24T04:27:51;14.50;;;8.20;;
10450;SDS011;5273;51.290;6.918;2022-09-24T04:30:18;16.47;;;8.07;;
10450;SDS011;5273;51.290;6.918;2022-09-24T04:32:47;14.83;;;8.97;;
10450;SDS011;5273;51.290;6.918;2022-09-24T04:35:15;15.00;;;8.53;;
10450;SDS011;5273;51.290;6.918;2022-09-24T04:37:43;11.10;;;8.00;;
10450;SDS011;5273;51.290;6.918;2022-09-24T04:40:10;16.57;;;8.50;;
10450;SDS011;5273;51.290;6.918;2022-09-24T04:42:37;11.57;;;8.60;;
10450;SDS011;5273;51.290;6.918;2022-09-24T04:45:05;14.37;;;8.63;;
10450;SDS011;5273;51.290;6.918;2022-09-24T04:47:33;12.83;;;8.47;;
10450;SDS011;5273;51.290;6.918;2022-09-24T04:50:03;14.07;;;9.00;;
10450;SDS011;5273;51.290;6.918;2022-09-24T04:52:30;13.73;;;8.47;;
10450;SDS011;5273;51.290;6.918;2022-09-24T04:54:58;14.02;;;8.50;;
10450;SDS011;5273;51.290;6.918;2022-09-24T04:57:25;14.73;;;8.50;;
10450;SDS011;5273;51.290;6.918;2022-09-24T04:59:53;16.65;;;8.55;;
10450;SDS011;5273;51.290;6.918;2022-09-24T05:02:20;11.82;;;8.20;;
10450;SDS011;5273;51.290;6.918;2022-09-24T05:04:48;15.48;;;9.68;;
10450;SDS011;5273;51.290;6.918;2022-09-24T05:07:16;14.98;;;8.32;;
10450;SDS011;5273;51.290;6.918;2022-09-24T05:09:43;15.13;;;9.15;;
10450;SDS011;5273;51.290;6.918;2022-09-24T05:12:10;13.45;;;9.45;;
10450;SDS011;5273;51.290;6.918;2022-09-24T05:14:37;14.93;;;8.90;;
10450;SDS011;5273;51.290;6.918;2022-09-24T05:17:04;13.50;;;8.20;;
10450;SDS011;5273;51.290;6.918;2022-09-24T05:19:31;12.73;;;8.43;;
10450;SDS011;5273;51.290;6.918;2022-09-24T05:21:58;18.03;;;11.17;;
10450;SDS011;5273;51.290;6.918;2022-09-24T05:24:27;13.07;;;9.73;;
10450;SDS011;5273;51.290;6.918;2022-09-24T05:26:54;13.97;;;9.23;;
10450;SDS011;5273;51.290;6.918;2022-09-24T05:29:35;18.70;;;11.03;;
10450;SDS011;5273;51.290;6.918;2022-09-24T05:32:03;15.00;;;10.33;;
10450;SDS011;5273;51.290;6.918;2022-09-24T05:34:31;17.07;;;10.40;;
10450;SDS011;5273;51.290;6.918;2022-09-24T05:36:58;18.47;;;10.20;;
10450;SDS011;5273;51.290;6.918;2022-09-24T05:39:27;16.92;;;10.80;;
10450;SDS011;5273;51.290;6.918;2022-09-24T05:41:54;14.53;;;9.97;;
10450;SDS011;5273;51.290;6.918;2022-09-24T05:44:21;20.80;;;10.47;;
10450;SDS011;5273;51.290;6.918;2022-09-24T05:46:48;17.17;;;9.20;;
10450;SDS011;5273;51.290;6.918;2022-09-24T05:49:16;15.52;;;8.93;;
10450;SDS011;5273;51.290;6.918;2022-09-24T05:51:43;12.38;;;8.15;;
10450;SDS011;5273;51.290;6.918;2022-09-24T05:54:10;10.67;;;8.73;;
10450;SDS011;5273;51.290;6.918;2022-09-24T05:56:38;14.60;;;8.37;;
10450;SDS011;5273;51.290;6.918;2022-09-24T05:59:05;15.67;;;8.60;;
10450;SDS011;5273;51.290;6.918;2022-09-24T06:01:32;12.00;;;7.67;;
10450;SDS011;5273;51.290;6.918;2022-09-24T06:04:00;10.63;;;8.30;;
10450;SDS011;5273;51.290;6.918;2022-09-24T06:06:27;11.30;;;8.17;;
10450;SDS011;5273;51.290;6.918;2022-09-24T06:08:54;11.80;;;8.27;;
10450;SDS011;5273;51.290;6.918;2022-09-24T06:11:21;11.45;;;7.68;;
10450;SDS011;5273;51.290;6.918;2022-09-24T06:13:50;11.97;;;8.57;;
10450;SDS011;5273;51.290;6.918;2022-09-24T06:16:17;11.50;;;7.47;;
10450;SDS011;5273;51.290;6.918;2022-09-24T06:18:44;12.00;;;7.67;;
10450;SDS011;5273;51.290;6.918;2022-09-24T06:21:12;9.60;;;7.80;;
10450;SDS011;5273;51.290;6.918;2022-09-24T06:23:41;10.40;;;7.85;;
10450;SDS011;5273;51.290;6.918;2022-09-24T06:26:10;12.80;;;7.80;;
10450;SDS011;5273;51.290;6.918;2022-09-24T06:28:39;12.15;;;7.80;;
10450;SDS011;5273;51.290;6.918;2022-09-24T06:31:07;7.70;;;6.90;;
10450;SDS011;5273;51.290;6.918;2022-09-24T06:33:36;11.00;;;7.30;;
10450;SDS011;5273;51.290;6.918;2022-09-24T06:36:04;11.25;;;7.03;;
10450;SDS011;5273;51.290;6.918;2022-09-24T06:38:32;10.30;;;7.13;;
10450;SDS011;5273;51.290;6.918;2022-09-24T06:41:00;10.63;;;7.30;;
10450;SDS011;5273;51.290;6.918;2022-09-24T06:43:27;8.73;;;6.67;;
10450;SDS011;5273;51.290;6.918;2022-09-24T06:45:55;10.68;;;6.95;;
10450;SDS011;5273;51.290;6.918;2022-09-24T06:48:24;8.38;;;6.78;;
10450;SDS011;5273;51.290;6.918;2022-09-24T06:50:52;7.45;;;6.05;;
10450;SDS011;5273;51.290;6.918;2022-09-24T06:53:20;8.50;;;5.90;;
10450;SDS011;5273;51.290;6.918;2022-09-24T06:55:47;9.63;;;5.60;;
10450;SDS011;5273;51.290;6.918;2022-09-24T06:58:15;7.60;;;5.70;;
10450;SDS011;5273;51.290;6.918;2022-09-24T07:00:49;8.38;;;5.70;;
10450;SDS011;5273;51.290;6.918;2022-09-24T07:03:18;6.80;;;6.10;;
10450;SDS011;5273;51.290;6.918;2022-09-24T07:05:46;8.25;;;6.65;;
10450;SDS011;5273;51.290;6.918;2022-09-24T07:08:14;10.65;;;6.65;;
10450;SDS011;5273;51.290;6.918;2022-09-24T07:10:41;9.82;;;6.57;;
10450;SDS011;5273;51.290;6.918;2022-09-24T07:13:10;9.18;;;6.60;;
10450;SDS011;5273;51.290;6.918;2022-09-24T07:15:38;8.85;;;7.28;;
10450;SDS011;5273;51.290;6.918;2022-09-24T07:18:05;10.45;;;7.25;;
10450;SDS011;5273;51.290;6.918;2022-09-24T07:20:32;7.88;;;6.95;;
10450;SDS011;5273;51.290;6.918;2022-09-24T07:23:02;10.82;;;7.32;;
10450;SDS011;5273;51.290;6.918;2022-09-24T07:25:30;11.82;;;8.23;;
10450;SDS011;5273;51.290;6.918;2022-09-24T07:27:59;12.07;;;7.68;;
10450;SDS011;5273;51.290;6.918;2022-09-24T07:30:28;10.73;;;7.78;;
10450;SDS011;5273;51.290;6.918;2022-09-24T07:32:55;10.48;;;8.43;;
10450;SDS011;5273;51.290;6.918;2022-09-24T07:35:23;10.27;;;7.78;;
10450;SDS011;5273;51.290;6.918;2022-09-24T07:37:55;13.77;;;8.57;;
10450;SDS011;5273;51.290;6.918;2022-09-24T07:40:24;11.85;;;7.43;;
10450;SDS011;5273;51.290;6.918;2022-09-24T07:42:52;10.25;;;8.05;;
10450;SDS011;5273;51.290;6.918;2022-09-24T07:45:20;11.82;;;7.97;;
10450;SDS011;5273;51.290;6.918;2022-09-24T07:47:47;12.40;;;8.27;;
10450;SDS011;5273;51.290;6.918;2022-09-24T07:50:14;15.18;;;8.88;;
10450;SDS011;5273;51.290;6.918;2022-09-24T07:52:42;11.25;;;8.80;;
10450;SDS011;5273;51.290;6.918;2022-09-24T07:55:09;12.10;;;8.50;;
10450;SDS011;5273;51.290;6.918;2022-09-24T07:57:38;12.68;;;8.05;;
10450;SDS011;5273;51.290;6.918;2022-09-24T08:00:05;9.73;;;7.47;;
10450;SDS011;5273;51.290;6.918;2022-09-24T08:02:33;10.82;;;8.82;;
10450;SDS011;5273;51.290;6.918;2022-09-24T08:05:00;10.77;;;8.05;;
10450;SDS011;5273;51.290;6.918;2022-09-24T08:07:27;11.85;;;8.70;;
10450;SDS011;5273;51.290;6.918;2022-09-24T08:09:54;13.30;;;8.35;;
10450;SDS011;5273;51.290;6.918;2022-09-24T08:12:23;11.55;;;8.38;;
10450;SDS011;5273;51.290;6.918;2022-09-24T08:14:52;11.40;;;7.68;;
10450;SDS011;5273;51.290;6.918;2022-09-24T08:17:19;8.90;;;7.22;;
10450;SDS011;5273;51.290;6.918;2022-09-24T08:19:46;12.43;;;7.75;;
10450;SDS011;5273;51.290;6.918;2022-09-24T08:22:13;17.95;;;6.82;;
10450;SDS011;5273;51.290;6.918;2022-09-24T08:24:40;16.58;;;7.75;;
10450;SDS011;5273;51.290;6.918;2022-09-24T08:27:08;19.42;;;7.70;;
10450;SDS011;5273;51.290;6.918;2022-09-24T08:29:35;12.27;;;7.75;;
10450;SDS011;5273;51.290;6.918;2022-09-24T08:32:03;13.90;;;8.23;;
10450;SDS011;5273;51.290;6.918;2022-09-24T08:34:30;9.52;;;7.65;;
10450;SDS011;5273;51.290;6.918;2022-09-24T08:37:02;10.60;;;7.32;;
10450;SDS011;5273;51.290;6.918;2022-09-24T08:39:30;12.52;;;7.97;;
10450;SDS011;5273;51.290;6.918;2022-09-24T08:41:58;9.52;;;7.50;;
10450;SDS011;5273;51.290;6.918;2022-09-24T08:44:30;12.40;;;8.48;;
10450;SDS011;5273;51.290;6.918;2022-09-24T08:47:25;8.00;;;7.10;;
10450;SDS011;5273;51.290;6.918;2022-09-24T08:50:01;9.57;;;7.20;;
10450;SDS011;5273;51.290;6.918;2022-09-24T08:52:39;10.45;;;7.50;;
10450;SDS011;5273;51.290;6.918;2022-09-24T08:55:26;11.52;;;8.00;;
10450;SDS011;5273;51.290;6.918;2022-09-24T08:58:01;11.52;;;8.40;;
10450;SDS011;5273;51.290;6.918;2022-09-24T09:00:45;11.18;;;8.45;;
10450;SDS011;5273;51.290;6.918;2022-09-24T09:03:19;11.90;;;7.85;;
10450;SDS011;5273;51.290;6.918;2022-09-24T09:05:55;13.82;;;8.95;;
10450;SDS011;5273;51.290;6.918;2022-09-24T09:08:28;9.93;;;7.93;;
10450;SDS011;5273;51.290;6.918;2022-09-24T09:11:02;11.35;;;7.95;;
10450;SDS011;5273;51.290;6.918;2022-09-24T09:13:34;10.07;;;8.35;;
10450;SDS011;5273;51.290;6.918;2022-09-24T09:16:05;11.00;;;7.63;;
10450;SDS011;5273;51.290;6.918;2022-09-24T09:18:38;11.43;;;7.93;;
10450;SDS011;5273;51.290;6.918;2022-09-24T09:21:11;12.75;;;8.05;;
10450;SDS011;5273;51.290;6.918;2022-09-24T09:23:42;13.25;;;8.32;;
10450;SDS011;5273;51.290;6.918;2022-09-24T09:26:17;12.45;;;8.25;;
10450;SDS011;5273;51.290;6.918;2022-09-24T09:28:45;11.95;;;8.82;;
10450;SDS011;5273;51.290;6.918;2022-09-24T09:31:15;12.88;;;9.05;;
10450;SDS011;5273;51.290;6.918;2022-09-24T09:34:00;13.45;;;9.32;;
10450;SDS011;5273;51.290;6.918;2022-09-24T09:36:42;12.95;;;9.73;;
10450;SDS011;5273;51.290;6.918;2022-09-24T09:39:20;10.48;;;9.15;;
10450;SDS011;5273;51.290;6.918;2022-09-24T09:41:58;12.48;;;8.60;;
10450;SDS011;5273;51.290;6.918;2022-09-24T09:44:36;16.73;;;9.50;;
10450;SDS011;5273;51.290;6.918;2022-09-24T09:47:10;11.00;;;8.82;;
10450;SDS011;5273;51.290;6.918;2022-09-24T09:49:47;13.38;;;9.13;;
10450;SDS011;5273;51.290;6.918;2022-09-24T09:52:18;12.52;;;9.02;;
10450;SDS011;5273;51.290;6.918;2022-09-24T09:54:46;12.43;;;9.30;;
10450;SDS011;5273;51.290;6.918;2022-09-24T09:57:14;10.55;;;8.25;;
10450;SDS011;5273;51.290;6.918;2022-09-24T09:59:44;13.18;;;9.00;;
10450;SDS011;5273;51.290;6.918;2022-09-24T10:02:17;10.65;;;8.50;;
10450;SDS011;5273;51.290;6.918;2022-09-24T10:04:52;10.52;;;8.63;;
10450;SDS011;5273;51.290;6.918;2022-09-24T10:07:21;12.07;;;9.10;;
10450;SDS011;5273;51.290;6.918;2022-09-24T10:09:57;9.45;;;8.45;;
10450;SDS011;5273;51.290;6.918;2022-09-24T10:12:26;8.75;;;7.80;;
10450;SDS011;5273;51.290;6.918;2022-09-24T10:14:58;8.82;;;6.75;;
10450;SDS011;5273;51.290;6.918;2022-09-24T10:17:30;6.85;;;6.15;;
10450;SDS011;5273;51.290;6.918;2022-09-24T10:20:05;8.32;;;6.65;;
10450;SDS011;5273;51.290;6.918;2022-09-24T10:22:35;8.48;;;7.30;;
10450;SDS011;5273;51.290;6.918;2022-09-24T10:25:03;11.43;;;7.22;;
10450;SDS011;5273;51.290;6.918;2022-09-24T10:27:32;8.35;;;7.55;;
10450;SDS011;5273;51.290;6.918;2022-09-24T10:30:00;9.70;;;7.85;;
10450;SDS011;5273;51.290;6.918;2022-09-24T10:32:54;8.60;;;7.70;;
10450;SDS011;5273;51.290;6.918;2022-09-24T10:35:25;7.75;;;6.95;;
10450;SDS011;5273;51.290;6.918;2022-09-24T10:37:54;9.02;;;7.20;;
10450;SDS011;5273;51.290;6.918;2022-09-24T10:40:23;10.63;;;8.30;;
10450;SDS011;5273;51.290;6.918;2022-09-24T10:42:54;9.80;;;6.75;;
10450;SDS011;5273;51.290;6.918;2022-09-24T10:45:22;9.18;;;6.97;;
10450;SDS011;5273;51.290;6.918;2022-09-24T10:48:10;8.88;;;6.75;;
10450;SDS011;5273;51.290;6.918;2022-09-24T10:50:45;8.15;;;6.20;;
10450;SDS011;5273;51.290;6.918;2022-09-24T10:53:23;6.13;;;5.53;;
10450;SDS011;5273;51.290;6.918;2022-09-24T10:56:03;9.32;;;6.43;;
10450;SDS011;5273;51.290;6.918;2022-09-24T10:58:53;7.55;;;6.15;;
10450;SDS011;5273;51.290;6.918;2022-09-24T11:01:35;8.77;;;6.18;;
10450;SDS011;5273;51.290;6.918;2022-09-24T11:04:18;7.05;;;5.72;;
10450;SDS011;5273;51.290;6.918;2022-09-24T11:06:56;8.15;;;6.45;;
10450;SDS011;5273;51.290;6.918;2022-09-24T11:09:53;8.30;;;6.78;;
10450;SDS011;5273;51.290;6.918;2022-09-24T11:12:27;8.40;;;6.90;;
10450;SDS011;5273;51.290;6.918;2022-09-24T11:15:08;8.45;;;6.90;;
10450;SDS011;5273;51.290;6.918;2022-09-24T11:17:46;9.82;;;6.95;;
10450;SDS011;5273;51.290;6.918;2022-09-24T11:20:28;8.95;;;7.35;;
10450;SDS011;5273;51.290;6.918;2022-09-24T11:25:57;8.25;;;7.35;;
10450;SDS011;5273;51.290;6.918;2022-09-24T11:28:55;11.57;;;8.48;;
10450;SDS011;5273;51.290;6.918;2022-09-24T11:31:33;9.50;;;7.65;;
10450;SDS011;5273;51.290;6.918;2022-09-24T11:34:13;9.07;;;7.13;;
10450;SDS011;5273;51.290;6.918;2022-09-24T11:36:58;10.63;;;8.10;;
10450;SDS011;5273;51.290;6.918;2022-09-24T11:39:40;10.27;;;7.65;;
10450;SDS011;5273;51.290;6.918;2022-09-24T11:42:21;10.07;;;8.27;;
10450;SDS011;5273;51.290;6.918;2022-09-24T11:45:02;10.18;;;8.02;;
10450;SDS011;5273;51.290;6.918;2022-09-24T11:47:47;11.15;;;7.88;;
10450;SDS011;5273;51.290;6.918;2022-09-24T11:50:32;10.48;;;8.10;;
10450;SDS011;5273;51.290;6.918;2022-09-24T11:53:07;13.25;;;8.68;;
10450;SDS011;5273;51.290;6.918;2022-09-24T11:55:41;10.23;;;7.90;;
10450;SDS011;5273;51.290;6.918;2022-09-24T11:58:16;9.75;;;8.68;;
10450;SDS011;5273;51.290;6.918;2022-09-24T12:00:47;13.23;;;8.30;;
10450;SDS011;5273;51.290;6.918;2022-09-24T12:03:19;12.52;;;8.55;;
10450;SDS011;5273;51.290;6.918;2022-09-24T12:05:50;11.15;;;8.05;;
10450;SDS011;5273;51.290;6.918;2022-09-24T12:08:24;12.50;;;9.55;;
10450;SDS011;5273;51.290;6.918;2022-09-24T12:10:57;10.73;;;8.82;;
10450;SDS011;5273;51.290;6.918;2022-09-24T12:13:29;10.88;;;8.30;;
10450;SDS011;5273;51.290;6.918;2022-09-24T12:16:04;12.70;;;8.98;;
10450;SDS011;5273;51.290;6.918;2022-09-24T12:18:37;10.45;;;8.82;;
10450;SDS011;5273;51.290;6.918;2022-09-24T12:21:09;11.25;;;9.18;;
10450;SDS011;5273;51.290;6.918;2022-09-24T12:23:41;9.77;;;8.38;;
10450;SDS011;5273;51.290;6.918;2022-09-24T12:26:13;12.23;;;10.02;;
10450;SDS011;5273;51.290;6.918;2022-09-24T12:28:45;11.23;;;9.23;;
10450;SDS011;5273;51.290;6.918;2022-09-24T12:31:38;8.52;;;7.40;;
10450;SDS011;5273;51.290;6.918;2022-09-24T12:34:30;12.85;;;8.38;;
10450;SDS011;5273;51.290;6.918;2022-09-24T12:37:08;11.77;;;7.60;;
10450;SDS011;5273;51.290;6.918;2022-09-24T12:39:41;7.88;;;6.68;;
10450;SDS011;5273;51.290;6.918;2022-09-24T12:42:14;9.27;;;7.57;;
10450;SDS011;5273;51.290;6.918;2022-09-24T12:44:47;9.60;;;7.40;;
10450;SDS011;5273;51.290;6.918;2022-09-24T12:47:18;10.23;;;7.75;;
10450;SDS011;5273;51.290;6.918;2022-09-24T12:49:47;8.80;;;7.05;;
10450;SDS011;5273;51.290;6.918;2022-09-24T12:52:22;9.77;;;7.50;;
10450;SDS011;5273;51.290;6.918;2022-09-24T12:54:55;9.43;;;6.50;;
10450;SDS011;5273;51.290;6.918;2022-09-24T12:57:29;8.48;;;6.63;;
10450;SDS011;5273;51.290;6.918;2022-09-24T13:00:00;7.32;;;6.30;;
10450;SDS011;5273;51.290;6.918;2022-09-24T13:02:42;10.55;;;7.00;;
10450;SDS011;5273;51.290;6.918;2022-09-24T13:05:15;7.38;;;6.03;;
10450;SDS011;5273;51.290;6.918;2022-09-24T13:07:53;8.77;;;6.20;;
10450;SDS011;5273;51.290;6.918;2022-09-24T13:10:23;8.18;;;6.45;;
10450;SDS011;5273;51.290;6.918;2022-09-24T13:12:52;9.45;;;7.00;;
10450;SDS011;5273;51.290;6.918;2022-09-24T13:15:25;8.20;;;6.22;;
10450;SDS011;5273;51.290;6.918;2022-09-24T13:18:00;8.48;;;6.40;;
10450;SDS011;5273;51.290;6.918;2022-09-24T13:20:43;7.60;;;6.30;;
10450;SDS011;5273;51.290;6.918;2022-09-24T13:23:13;6.78;;;5.78;;
10450;SDS011;5273;51.290;6.918;2022-09-24T13:25:56;8.60;;;6.40;;
10450;SDS011;5273;51.290;6.918;2022-09-24T13:28:26;8.40;;;6.57;;
10450;SDS011;5273;51.290;6.918;2022-09-24T13:30:55;7.32;;;6.03;;
10450;SDS011;5273;51.290;6.918;2022-09-24T13:33:28;7.63;;;6.47;;
10450;SDS011;5273;51.290;6.918;2022-09-24T13:36:06;9.10;;;6.65;;
10450;SDS011;5273;51.290;6.918;2022-09-24T13:38:41;7.28;;;5.90;;
10450;SDS011;5273;51.290;6.918;2022-09-24T13:41:18;8.52;;;6.70;;
10450;SDS011;5273;51.290;6.918;2022-09-24T13:43:52;9.55;;;7.05;;
10450;SDS011;5273;51.290;6.918;2022-09-24T13:46:24;12.30;;;6.50;;
10450;SDS011;5273;51.290;6.918;2022-09-24T13:48:54;8.52;;;6.78;;
10450;SDS011;5273;51.290;6.918;2022-09-24T13:51:23;8.32;;;6.28;;
10450;SDS011;5273;51.290;6.918;2022-09-24T13:53:54;11.38;;;6.45;;
10450;SDS011;5273;51.290;6.918;2022-09-24T13:56:27;11.95;;;6.53;;
10450;SDS011;5273;51.290;6.918;2022-09-24T13:59:02;9.80;;;6.95;;
10450;SDS011;5273;51.290;6.918;2022-09-24T14:01:34;10.30;;;7.70;;
10450;SDS011;5273;51.290;6.918;2022-09-24T14:04:05;12.13;;;7.43;;
10450;SDS011;5273;51.290;6.918;2022-09-24T14:06:41;11.65;;;7.63;;
10450;SDS011;5273;51.290;6.918;2022-09-24T14:09:14;10.30;;;7.10;;
10450;SDS011;5273;51.290;6.918;2022-09-24T14:11:47;10.57;;;7.18;;
10450;SDS011;5273;51.290;6.918;2022-09-24T14:14:18;10.82;;;8.00;;
10450;SDS011;5273;51.290;6.918;2022-09-24T14:16:47;9.98;;;7.35;;
10450;SDS011;5273;51.290;6.918;2022-09-24T14:19:14;10.85;;;7.90;;
10450;SDS011;5273;51.290;6.918;2022-09-24T14:21:42;10.75;;;8.07;;
10450;SDS011;5273;51.290;6.918;2022-09-24T14:24:14;7.93;;;7.13;;
10450;SDS011;5273;51.290;6.918;2022-09-24T14:26:45;9.77;;;8.15;;
10450;SDS011;5273;51.290;6.918;2022-09-24T14:29:16;14.55;;;9.35;;
10450;SDS011;5273;51.290;6.918;2022-09-24T14:31:48;8.50;;;7.60;;
10450;SDS011;5273;51.290;6.918;2022-09-24T14:34:23;9.68;;;7.75;;
10450;SDS011;5273;51.290;6.918;2022-09-24T14:36:52;12.30;;;9.07;;
10450;SDS011;5273;51.290;6.918;2022-09-24T14:39:21;9.98;;;7.78;;
10450;SDS011;5273;51.290;6.918;2022-09-24T14:41:52;10.18;;;8.27;;
10450;SDS011;5273;51.290;6.918;2022-09-24T14:44:23;10.43;;;8.25;;
10450;SDS011;5273;51.290;6.918;2022-09-24T14:46:53;12.05;;;8.40;;
10450;SDS011;5273;51.290;6.918;2022-09-24T14:49:23;12.63;;;8.82;;
10450;SDS011;5273;51.290;6.918;2022-09-24T14:51:53;11.95;;;8.93;;
10450;SDS011;5273;51.290;6.918;2022-09-24T14:54:25;10.15;;;8.45;;
10450;SDS011;5273;51.290;6.918;2022-09-24T14:56:54;11.82;;;9.48;;
10450;SDS011;5273;51.290;6.918;2022-09-24T14:59:29;9.57;;;8.18;;
10450;SDS011;5273;51.290;6.918;2022-09-24T15:02:02;10.18;;;8.18;;
10450;SDS011;5273;51.290;6.918;2022-09-24T15:04:37;9.07;;;7.88;;
10450;SDS011;5273;51.290;6.918;2022-09-24T15:07:04;10.57;;;8.48;;
10450;SDS011;5273;51.290;6.918;2022-09-24T15:09:39;8.85;;;7.95;;
10450;SDS011;5273;51.290;6.918;2022-09-24T15:12:06;10.68;;;8.38;;
10450;SDS011;5273;51.290;6.918;2022-09-24T15:14:35;10.50;;;8.13;;
10450;SDS011;5273;51.290;6.918;2022-09-24T15:17:09;10.82;;;8.65;;
10450;SDS011;5273;51.290;6.918;2022-09-24T15:19:45;12.80;;;8.07;;